createdAt,value
2019-02-02T14:40:22.547Z,17.42
2019-02-02T14:42:51.847Z,17.57
2019-02-02T14:45:27.699Z,17.73
2019-02-02T14:47:57.375Z,17.90
2019-02-02T14:50:27.113Z,18.19
2019-02-02T14:52:55.945Z,18.20
2019-02-02T14:55:27.207Z,18.29
2019-02-02T14:58:10.759Z,18.28
2019-02-02T15:00:40.762Z,18.18
2019-02-02T15:03:10.440Z,18.04
2019-02-02T15:05:42.987Z,17.92
2019-02-02T15:08:11.321Z,17.80
2019-02-02T15:10:41.093Z,17.70
2019-02-02T15:13:10.688Z,17.56
2019-02-02T15:15:40.181Z,17.72
2019-02-02T15:18:09.220Z,17.80
2019-02-02T15:20:38.302Z,17.82
2019-02-02T15:23:07.786Z,17.75
2019-02-02T15:25:37.183Z,17.78
2019-02-02T15:28:08.995Z,17.50
2019-02-02T15:30:42.185Z,17.24
2019-02-02T15:33:11.694Z,16.87
2019-02-02T15:35:41.040Z,16.85
2019-02-02T15:38:11.050Z,17.04
2019-02-02T15:40:40.812Z,17.15
2019-02-02T15:43:10.998Z,17.15
2019-02-02T15:45:40.656Z,17.22
2019-02-02T15:48:10.361Z,17.30
2019-02-02T15:50:40.011Z,17.41
2019-02-02T15:53:09.503Z,17.39
2019-02-02T15:55:39.141Z,17.38
2019-02-02T15:58:08.554Z,17.33
2019-02-02T16:00:38.833Z,17.18
2019-02-02T16:03:08.565Z,17.04
2019-02-02T16:05:37.859Z,17.03
2019-02-02T16:08:10.679Z,16.99
2019-02-02T16:10:40.617Z,16.89
2019-02-02T16:13:10.492Z,16.85
2019-02-02T16:15:40.422Z,16.87
2019-02-02T16:18:10.032Z,16.86
2019-02-02T16:20:42.501Z,16.83
2019-02-02T16:23:12.393Z,16.93
2019-02-02T16:25:42.088Z,16.91
2019-02-02T16:28:11.801Z,17.03
2019-02-02T16:30:41.615Z,16.93
2019-02-02T16:33:11.417Z,16.88
2019-02-02T16:35:40.229Z,16.81
2019-02-02T16:38:10.370Z,16.67
2019-02-02T16:40:40.293Z,16.50
2019-02-02T16:43:10.062Z,16.42
2019-02-02T16:45:40.498Z,16.36
2019-02-02T16:48:09.538Z,16.28
2019-02-02T16:50:42.287Z,16.06
2019-02-02T16:53:11.432Z,15.83
2019-02-02T16:55:40.451Z,15.79
2019-02-02T16:58:09.435Z,15.85
2019-02-02T17:00:39.163Z,15.78
2019-02-02T17:03:09.637Z,15.76
2019-02-02T17:05:39.538Z,15.78
2019-02-02T17:08:08.454Z,15.72
2019-02-02T17:10:38.001Z,15.61
2019-02-02T17:13:07.308Z,15.50
2019-02-02T17:15:36.540Z,15.32
2019-02-02T17:18:06.546Z,15.19
2019-02-02T17:20:43.317Z,15.10
2019-02-02T17:23:13.858Z,14.97
2019-02-02T17:25:43.629Z,14.91
2019-02-02T17:28:13.057Z,14.82
2019-02-02T17:30:44.019Z,14.75
2019-02-02T17:33:14.502Z,14.66
2019-02-02T17:35:43.672Z,14.64
2019-02-02T17:38:15.833Z,14.61
2019-02-02T17:40:44.869Z,14.56
2019-02-02T17:43:14.272Z,14.50
2019-02-02T17:45:43.162Z,14.49
2019-02-02T17:48:13.263Z,14.42
2019-02-02T17:50:43.225Z,14.37
2019-02-02T17:53:13.449Z,14.41
2019-02-02T17:55:43.350Z,14.32
2019-02-02T17:58:13.601Z,14.28
2019-02-02T18:00:45.130Z,14.23
2019-02-02T18:03:15.054Z,14.19
2019-02-02T18:05:45.168Z,14.14
2019-02-02T18:08:15.327Z,14.07
2019-02-02T18:10:45.302Z,14.01
2019-02-02T18:13:15.366Z,13.89
2019-02-02T18:15:45.348Z,13.78
2019-02-02T18:18:14.963Z,13.67
2019-02-02T18:20:44.937Z,13.56
2019-02-02T18:23:17.915Z,13.49
2019-02-02T18:25:46.459Z,13.46
2019-02-02T18:28:15.903Z,13.43
2019-02-02T18:30:45.711Z,13.38
2019-02-02T18:33:18.650Z,13.30
2019-02-02T18:35:48.392Z,13.21
2019-02-02T18:38:18.409Z,13.18
2019-02-02T18:40:48.345Z,13.13
2019-02-02T18:43:18.330Z,13.07
2019-02-02T18:45:48.054Z,13.00
2019-02-02T18:48:18.042Z,12.95
2019-02-02T18:50:48.423Z,12.91
2019-02-02T18:53:17.944Z,12.88
2019-02-02T18:55:50.623Z,12.84
2019-02-02T18:58:20.653Z,12.79
2019-02-02T19:00:50.305Z,12.71
2019-02-02T19:03:20.138Z,12.61
2019-02-02T19:05:50.106Z,12.56
2019-02-02T19:08:19.944Z,12.52
2019-02-02T19:10:49.608Z,12.50
2019-02-02T19:13:19.634Z,12.43
2019-02-02T19:15:49.677Z,12.32
2019-02-02T19:18:19.679Z,12.26
2019-02-02T19:20:49.890Z,12.21
2019-02-02T19:23:25.190Z,12.16
2019-02-02T19:25:51.009Z,12.14
2019-02-02T19:28:21.140Z,12.08
2019-02-02T19:30:53.562Z,12.02
2019-02-02T19:33:22.555Z,12.00
2019-02-02T19:35:52.502Z,12.00
2019-02-02T19:38:22.301Z,11.99
2019-02-02T19:40:52.660Z,11.93
2019-02-02T19:43:22.591Z,11.87
2019-02-02T19:45:53.829Z,11.80
2019-02-02T19:48:23.857Z,11.71
2019-02-02T19:50:53.522Z,11.65
2019-02-02T19:53:23.970Z,11.68
2019-02-02T19:55:53.857Z,11.70
2019-02-02T19:58:23.785Z,11.71
2019-02-02T20:00:53.728Z,11.71
2019-02-02T20:03:23.644Z,11.67
2019-02-02T20:05:53.361Z,11.65
2019-02-02T20:08:23.247Z,11.62
2019-02-02T20:10:53.156Z,11.61
2019-02-02T20:13:23.172Z,11.60
2019-02-02T20:15:52.858Z,11.59
2019-02-02T20:18:24.955Z,11.61
2019-02-02T20:20:54.800Z,11.61
2019-02-02T20:23:24.776Z,11.63
2019-02-02T20:25:55.197Z,11.64
2019-02-02T20:28:25.070Z,11.63
2019-02-02T20:30:54.948Z,11.60
2019-02-02T20:33:24.836Z,11.59
2019-02-02T20:35:54.871Z,11.58
2019-02-02T20:38:24.770Z,11.58
2019-02-02T20:40:54.678Z,11.57
2019-02-02T20:43:24.599Z,11.51
2019-02-02T20:45:54.329Z,11.45
2019-02-02T20:48:24.262Z,11.38
2019-02-02T20:50:54.283Z,11.30
2019-02-02T20:53:23.622Z,11.24
2019-02-02T20:55:53.473Z,11.24
2019-02-02T20:58:23.490Z,11.20
2019-02-02T21:00:53.298Z,11.15
2019-02-02T21:03:23.103Z,11.10
2019-02-02T21:05:53.230Z,11.04
2019-02-02T21:08:22.932Z,11.01
2019-02-02T21:10:52.716Z,10.97
2019-02-02T21:13:22.667Z,10.94
2019-02-02T21:15:52.379Z,10.93
2019-02-02T21:18:22.394Z,10.91
2019-02-02T21:20:52.663Z,10.90
2019-02-02T21:23:22.387Z,10.89
2019-02-02T21:25:52.312Z,10.86
2019-02-02T21:28:22.350Z,10.81
2019-02-02T21:30:52.502Z,10.76
2019-02-02T21:33:22.354Z,10.74
2019-02-02T21:36:03.288Z,10.73
2019-02-02T21:38:23.806Z,10.72
2019-02-02T21:40:53.795Z,10.70
2019-02-02T21:43:24.080Z,10.66
2019-02-02T21:45:54.227Z,10.62
2019-02-02T21:48:24.026Z,10.60
2019-02-02T21:50:54.550Z,10.56
2019-02-02T21:53:24.035Z,10.50
2019-02-02T21:55:53.985Z,10.41
2019-02-02T21:58:24.397Z,10.31
2019-02-02T22:00:54.348Z,10.21
2019-02-02T22:03:24.268Z,10.12
2019-02-02T22:05:54.235Z,10.01
2019-02-02T22:08:24.080Z,9.88
2019-02-02T22:10:53.952Z,9.82
2019-02-02T22:13:24.063Z,9.72
2019-02-02T22:15:53.829Z,9.66
2019-02-02T22:18:23.613Z,9.60
2019-02-02T22:20:53.942Z,9.56
2019-02-02T22:23:23.596Z,9.46
2019-02-02T22:25:53.255Z,9.35
2019-02-02T22:28:23.192Z,9.28
2019-02-02T22:30:53.008Z,9.23
2019-02-02T22:33:23.278Z,9.23
2019-02-02T22:35:53.206Z,9.15
2019-02-02T22:38:28.139Z,9.09
2019-02-02T22:40:57.585Z,9.05
2019-02-02T22:43:27.359Z,8.96
2019-02-02T22:45:56.589Z,8.95
2019-02-02T22:48:26.598Z,8.94
2019-02-02T22:50:56.456Z,8.96
2019-02-02T22:53:26.269Z,8.99
2019-02-02T22:55:55.287Z,9.01
2019-02-02T22:58:24.497Z,9.02
2019-02-02T23:01:07.259Z,8.98
2019-02-02T23:03:48.478Z,8.93
2019-02-02T23:06:38.606Z,8.89
2019-02-02T23:09:24.745Z,8.79
2019-02-02T23:12:03.045Z,8.69
2019-02-02T23:14:53.862Z,8.58
2019-02-02T23:17:22.757Z,8.55
2019-02-02T23:19:51.947Z,8.52
2019-02-02T23:22:21.987Z,8.48
2019-02-02T23:24:51.728Z,8.48
2019-02-02T23:27:21.462Z,8.46
2019-02-02T23:29:51.207Z,8.40
2019-02-02T23:32:21.014Z,8.39
2019-02-02T23:34:50.479Z,8.34
2019-02-02T23:37:20.196Z,8.31
2019-02-02T23:39:49.466Z,8.33
2019-02-02T23:42:18.870Z,8.29
2019-02-02T23:44:48.085Z,8.27
2019-02-02T23:47:17.771Z,8.27
2019-02-02T23:49:47.537Z,8.22
2019-02-02T23:52:16.940Z,8.19
2019-02-02T23:54:46.907Z,8.16
2019-02-02T23:57:16.507Z,8.14
2019-02-02T23:59:45.850Z,8.09
